Time;durP1;ratioP1;P1;durP2;ratioP2;P2;SDS_P1;SDS_P2;PMS_P1;PMS_P2;Temp;Humidity;BMP_temperature;BMP_pressure;BME280_temperature;BME280_humidity;BME280_pressure;Samples;Min_cycle;Max_cycle;Signal;HPM_P1;HPM_P2
2021/10/04 00:00:34;;;;;;;0.40;0.30;;;;;;;17.56;88.32;100701.97;5054790;28;20940;-70
2021/10/04 00:03:01;;;;;;;0.40;0.30;;;;;;;17.49;87.90;100702.56;5054969;28;20469;-69
2021/10/04 00:05:29;;;;;;;0.40;0.20;;;;;;;17.51;88.63;100710.44;5056025;28;20446;-70
2021/10/04 00:07:55;;;;;;;0.40;0.20;;;;;;;17.54;88.74;100720.69;5054466;28;20885;-70
2021/10/04 00:10:22;;;;;;;0.40;0.30;;;;;;;17.53;89.32;100708.13;5054920;28;20434;-70
2021/10/04 00:12:49;;;;;;;0.40;0.30;;;;;;;17.48;90.75;100711.91;5054808;28;20514;-70
2021/10/04 00:15:18;;;;;;;0.40;0.30;;;;;;;17.47;90.80;100720.47;5054701;28;20486;-70
2021/10/04 00:17:44;;;;;;;0.40;0.30;;;;;;;17.51;91.07;100722.19;5054506;28;20900;-70
2021/10/04 00:20:14;;;;;;;0.40;0.20;;;;;;;17.52;91.61;100717.50;5054713;28;20433;-70
2021/10/04 00:22:42;;;;;;;0.50;0.40;;;;;;;17.51;91.98;100727.66;5054666;28;20467;-70
2021/10/04 00:25:10;;;;;;;0.40;0.30;;;;;;;17.50;92.67;100728.81;5054543;28;20439;-70
2021/10/04 00:27:37;;;;;;;0.50;0.50;;;;;;;17.52;92.85;100728.44;5054501;28;20438;-70
2021/10/04 00:30:06;;;;;;;0.40;0.20;;;;;;;17.49;93.64;100740.13;5054488;28;20449;-70
2021/10/04 00:32:33;;;;;;;0.40;0.30;;;;;;;17.48;93.77;100736.56;5054488;28;20447;-71
2021/10/04 00:34:59;;;;;;;0.40;0.20;;;;;;;17.39;94.44;100731.19;5054311;28;20489;-71
2021/10/04 00:37:26;;;;;;;0.40;0.30;;;;;;;17.37;94.78;100733.50;5054356;28;20838;-70
2021/10/04 00:39:54;;;;;;;0.40;0.30;;;;;;;17.31;95.07;100740.34;5054396;28;20450;-71
2021/10/04 00:42:21;;;;;;;0.40;0.23;;;;;;;17.30;95.45;100738.72;5054279;28;20437;-70
2021/10/04 00:44:48;;;;;;;0.40;0.20;;;;;;;17.22;96.49;100742.41;5054291;28;20446;-71
2021/10/04 00:47:15;;;;;;;0.40;0.30;;;;;;;17.18;96.88;100738.75;5054187;28;20453;-71
2021/10/04 00:49:41;;;;;;;0.40;0.20;;;;;;;17.18;98.06;100729.72;5054047;28;20467;-71
2021/10/04 00:52:08;;;;;;;0.40;0.30;;;;;;;17.17;97.93;100739.88;5054097;28;20449;-71
2021/10/04 00:54:34;;;;;;;0.40;0.30;;;;;;;17.14;98.57;100743.31;5053718;28;20862;-71
2021/10/04 00:57:03;;;;;;;0.40;0.30;;;;;;;17.16;98.17;100743.75;5053030;28;20438;-71
2021/10/04 00:59:29;;;;;;;0.40;0.30;;;;;;;17.18;98.35;100752.44;5053567;28;20465;-71
2021/10/04 01:01:55;;;;;;;0.40;0.20;;;;;;;17.21;98.42;100762.69;5053878;28;20446;-71
2021/10/04 01:04:26;;;;;;;0.40;0.20;;;;;;;17.19;98.45;100764.19;5053568;28;20442;-70
2021/10/04 01:06:52;;;;;;;0.40;0.20;;;;;;;17.20;98.63;100761.09;5054134;28;20799;-70
2021/10/04 01:09:19;;;;;;;0.40;0.20;;;;;;;17.25;97.95;100758.13;5053721;28;20450;-70
2021/10/04 01:11:45;;;;;;;0.40;0.30;;;;;;;17.24;97.41;100759.28;5053454;28;20818;-70
2021/10/04 01:14:13;;;;;;;0.40;0.20;;;;;;;17.26;97.21;100756.19;5053606;28;20482;-70
2021/10/04 01:16:39;;;;;;;0.40;0.30;;;;;;;17.25;96.98;100762.81;5053684;28;20495;-70
2021/10/04 01:19:06;;;;;;;0.40;0.20;;;;;;;17.24;95.56;100762.00;5053194;28;20482;-71
2021/10/04 01:21:34;;;;;;;0.40;0.30;;;;;;;17.22;96.14;100760.75;5053291;28;20946;-70
2021/10/04 01:24:00;;;;;;;0.40;0.30;;;;;;;17.25;95.87;100758.13;5053175;28;20852;-70
2021/10/04 01:26:27;;;;;;;0.40;0.30;;;;;;;17.30;96.00;100762.56;5053526;28;20810;-70
2021/10/04 01:28:53;;;;;;;0.40;0.27;;;;;;;17.27;96.17;100774.22;5053398;28;20583;-70
2021/10/04 01:31:22;;;;;;;0.40;0.30;;;;;;;17.20;96.65;100787.69;5053420;28;20817;-70
2021/10/04 01:33:49;;;;;;;0.40;0.27;;;;;;;17.15;97.31;100794.16;5053298;28;20490;-70
2021/10/04 01:36:15;;;;;;;0.40;0.20;;;;;;;17.13;97.26;100789.03;5053350;28;20849;-70
2021/10/04 01:38:43;;;;;;;0.40;0.30;;;;;;;17.06;97.65;100797.00;5053240;28;20500;-70
2021/10/04 01:41:10;;;;;;;0.40;0.30;;;;;;;16.99;97.95;100801.44;5053243;28;20438;-71
2021/10/04 01:43:36;;;;;;;0.40;0.20;;;;;;;16.96;97.38;100800.19;5053255;28;20453;-71
2021/10/04 01:46:03;;;;;;;0.40;0.20;;;;;;;16.91;96.65;100814.09;5053128;28;20449;-70
2021/10/04 01:48:29;;;;;;;0.40;0.30;;;;;;;16.89;96.80;100816.34;5053049;28;20458;-71
2021/10/04 01:50:56;;;;;;;0.40;0.30;;;;;;;16.88;95.45;100831.97;5053145;28;20442;-71
2021/10/04 01:53:22;;;;;;;0.40;0.20;;;;;;;16.81;95.79;100830.91;5052822;28;20952;-70
2021/10/04 01:55:50;;;;;;;0.40;0.30;;;;;;;16.75;96.04;100841.28;5053041;28;20504;-70
2021/10/04 01:58:17;;;;;;;0.40;0.20;;;;;;;16.71;95.73;100834.84;5052890;28;20976;-70
2021/10/04 02:00:46;;;;;;;0.40;0.30;;;;;;;16.70;95.49;100846.94;5053254;28;20441;-70
2021/10/04 02:03:12;;;;;;;0.40;0.23;;;;;;;16.71;95.33;100850.47;5053041;28;20847;-70
2021/10/04 02:05:39;;;;;;;0.40;0.30;;;;;;;16.64;95.21;100850.97;5052699;28;20974;-70
2021/10/04 02:08:06;;;;;;;0.40;0.20;;;;;;;16.64;95.61;100860.03;5054153;28;20461;-70
2021/10/04 02:10:35;;;;;;;0.40;0.30;;;;;;;16.63;95.80;100855.66;5057185;28;20533;-70
2021/10/04 02:13:06;;;;;;;0.40;0.20;;;;;;;16.65;95.71;100861.63;5057046;28;20448;-70
2021/10/04 02:15:33;;;;;;;0.40;0.20;;;;;;;16.61;96.27;100854.41;5056967;28;20513;-70
2021/10/04 02:18:00;;;;;;;0.40;0.30;;;;;;;16.55;97.13;100858.47;5056654;28;20481;-70
2021/10/04 02:20:29;;;;;;;0.40;0.30;;;;;;;16.55;96.72;100858.47;5057004;28;20418;-70
2021/10/04 02:22:56;;;;;;;0.40;0.20;;;;;;;16.47;97.79;100864.81;5056929;28;20442;-70
2021/10/04 02:25:23;;;;;;;0.40;0.30;;;;;;;16.49;98.02;100863.34;5056898;28;20460;-70
2021/10/04 02:27:50;;;;;;;0.40;0.20;;;;;;;16.45;98.29;100872.56;5056774;28;20465;-70
2021/10/04 02:30:20;;;;;;;0.40;0.20;;;;;;;16.43;98.37;100872.09;5056764;28;20446;-69
2021/10/04 02:32:47;;;;;;;0.40;0.30;;;;;;;16.44;99.11;100882.69;5057103;28;20511;-70
2021/10/04 02:35:13;;;;;;;0.40;0.20;;;;;;;16.43;98.57;100894.78;5056664;28;20489;-70
2021/10/04 02:37:40;;;;;;;0.40;0.30;;;;;;;16.45;98.63;100895.22;5056329;28;21081;-70
2021/10/04 02:40:08;;;;;;;0.40;0.20;;;;;;;16.42;99.02;100889.63;5056658;28;20438;-70
2021/10/04 02:42:36;;;;;;;0.40;0.30;;;;;;;16.40;99.16;100896.22;5056625;28;20446;-70
2021/10/04 02:45:03;;;;;;;0.40;0.20;;;;;;;16.36;99.28;100900.75;5056535;28;20442;-70
2021/10/04 02:47:31;;;;;;;0.40;0.20;;;;;;;16.30;99.56;100893.88;5056129;28;20931;-70
2021/10/04 02:49:57;;;;;;;0.40;0.30;;;;;;;16.27;100.00;100896.47;5056435;28;20453;-70
2021/10/04 02:52:24;;;;;;;0.40;0.30;;;;;;;16.20;100.00;100904.41;5056116;28;20457;-70
2021/10/04 02:54:51;;;;;;;0.40;0.20;;;;;;;16.19;100.00;100903.59;5056278;28;20478;-70
2021/10/04 02:57:18;;;;;;;0.40;0.20;;;;;;;16.14;100.00;100917.47;5056352;28;20434;-70
2021/10/04 02:59:44;;;;;;;0.40;0.27;;;;;;;16.13;100.00;100910.41;5055964;28;20449;-69
2021/10/04 03:02:10;;;;;;;0.40;0.27;;;;;;;16.11;100.00;100909.91;5056178;28;20441;-70
2021/10/04 03:04:38;;;;;;;0.40;0.30;;;;;;;16.08;100.00;100913.31;5056138;28;20438;-70
2021/10/04 03:07:05;;;;;;;0.40;0.20;;;;;;;16.00;100.00;100916.91;5055832;28;20438;-70
2021/10/04 03:09:31;;;;;;;0.40;0.20;;;;;;;16.00;100.00;100922.38;5055993;28;20485;-69
2021/10/04 03:11:58;;;;;;;0.40;0.30;;;;;;;16.02;100.00;100934.53;5056033;28;20477;-69
2021/10/04 03:14:24;;;;;;;0.40;0.20;;;;;;;15.97;100.00;100931.22;5055933;28;20477;-70
2021/10/04 03:16:51;;;;;;;0.40;0.20;;;;;;;15.94;100.00;100935.41;5055925;28;20442;-70
2021/10/04 03:19:18;;;;;;;0.40;0.27;;;;;;;15.87;100.00;100933.19;5054363;28;20852;-70
2021/10/04 03:21:46;;;;;;;0.40;0.30;;;;;;;15.81;100.00;100937.22;5055856;28;20450;-70
2021/10/04 03:24:13;;;;;;;0.40;0.30;;;;;;;15.81;100.00;100944.63;5055803;28;20439;-70
2021/10/04 03:26:40;;;;;;;0.40;0.23;;;;;;;15.79;99.90;100953.13;5055339;28;20580;-71
2021/10/04 03:29:07;;;;;;;0.40;0.20;;;;;;;15.70;99.31;100951.56;5055315;28;20975;-71
2021/10/04 03:31:33;;;;;;;0.40;0.20;;;;;;;15.69;98.10;100944.50;5055675;28;20438;-70
2021/10/04 03:34:00;;;;;;;0.40;0.20;;;;;;;15.62;97.74;100953.16;5055579;28;20468;-70
2021/10/04 03:36:26;;;;;;;0.40;0.30;;;;;;;15.62;97.19;100948.50;5055451;28;20486;-70
2021/10/04 03:38:56;;;;;;;0.40;0.30;;;;;;;15.66;97.38;100951.41;5055422;28;20470;-70
2021/10/04 03:41:22;;;;;;;0.40;0.30;;;;;;;15.62;97.84;100956.69;5055442;28;20453;-70
2021/10/04 03:43:49;;;;;;;0.40;0.30;;;;;;;15.67;97.00;100971.31;5055390;28;20438;-70
2021/10/04 03:46:15;;;;;;;0.40;0.20;;;;;;;15.70;96.60;100968.75;5055347;28;20449;-70
2021/10/04 03:48:42;;;;;;;0.40;0.30;;;;;;;15.71;95.84;100966.81;5054928;28;20979;-70
2021/10/04 03:51:08;;;;;;;0.40;0.20;;;;;;;15.70;97.11;100982.41;5054957;28;20954;-71
2021/10/04 03:53:35;;;;;;;0.40;0.30;;;;;;;15.72;97.46;100987.56;5055241;28;20446;-72
2021/10/04 03:56:03;;;;;;;0.40;0.20;;;;;;;15.69;97.61;100989.00;5055047;28;20557;-70
2021/10/04 03:58:30;;;;;;;0.40;0.30;;;;;;;15.65;96.66;100982.59;5054739;28;20955;-70
2021/10/04 04:00:56;;;;;;;0.40;0.20;;;;;;;15.58;96.85;100971.31;5055006;28;20454;-70
2021/10/04 04:03:23;;;;;;;0.40;0.23;;;;;;;15.53;97.21;100988.66;5055097;28;20823;-70
2021/10/04 04:05:49;;;;;;;0.40;0.30;;;;;;;15.43;98.14;101010.06;5054993;28;20464;-70
2021/10/04 04:08:16;;;;;;;0.40;0.30;;;;;;;15.41;99.20;101001.41;5054876;28;20584;-70
2021/10/04 04:10:42;;;;;;;0.40;0.30;;;;;;;15.46;99.65;101003.97;5054909;28;20450;-70
2021/10/04 04:13:10;;;;;;;0.40;0.20;;;;;;;15.47;99.12;101005.56;5054804;28;20439;-70
2021/10/04 04:15:37;;;;;;;0.40;0.30;;;;;;;15.43;99.66;101013.59;5054733;28;20517;-70
2021/10/04 04:18:03;;;;;;;0.80;0.80;;;;;;;15.44;98.72;101019.84;5054533;28;20481;-70
2021/10/04 04:20:29;;;;;;;0.40;0.20;;;;;;;15.42;97.66;101017.44;5054758;28;20506;-70
2021/10/04 04:22:56;;;;;;;0.40;0.20;;;;;;;15.41;97.64;101012.31;5054663;28;20518;-70
2021/10/04 04:25:22;;;;;;;0.40;0.30;;;;;;;15.37;98.17;101012.97;5054657;28;20450;-70
2021/10/04 04:27:50;;;;;;;0.40;0.30;;;;;;;15.42;98.12;101022.13;5054541;28;20462;-70
2021/10/04 04:30:18;;;;;;;0.40;0.20;;;;;;;15.43;98.10;101026.44;5054012;28;20445;-71
2021/10/04 04:32:45;;;;;;;0.40;0.30;;;;;;;15.37;98.36;101044.91;5054481;28;20441;-71
2021/10/04 04:35:12;;;;;;;0.40;0.20;;;;;;;15.37;97.78;101047.66;5054338;28;20493;-71
2021/10/04 04:37:40;;;;;;;0.40;0.20;;;;;;;15.45;97.51;101055.03;5054315;28;20442;-70
2021/10/04 04:40:09;;;;;;;0.40;0.20;;;;;;;15.46;98.07;101053.91;5053947;28;20442;-71
2021/10/04 04:42:35;;;;;;;0.40;0.30;;;;;;;15.45;98.20;101043.28;5053254;28;20512;-71
2021/10/04 04:45:03;;;;;;;0.40;0.20;;;;;;;15.42;96.94;101041.22;5053893;28;20445;-71
2021/10/04 04:47:31;;;;;;;0.40;0.30;;;;;;;15.45;96.89;101046.03;5053777;28;20501;-71
2021/10/04 04:49:58;;;;;;;0.40;0.20;;;;;;;15.42;96.67;101043.94;5053845;28;20438;-71
2021/10/04 04:52:24;;;;;;;0.40;0.30;;;;;;;15.40;97.39;101060.63;5054125;28;20454;-71
2021/10/04 04:54:51;;;;;;;0.40;0.20;;;;;;;15.46;98.00;101070.28;5053936;28;20489;-71
2021/10/04 04:57:17;;;;;;;0.40;0.30;;;;;;;15.45;98.09;101063.22;5054242;28;20492;-71
2021/10/04 04:59:43;;;;;;;0.40;0.30;;;;;;;15.50;97.95;101076.72;5053918;28;20466;-71
2021/10/04 05:02:10;;;;;;;0.40;0.20;;;;;;;15.52;96.78;101081.84;5053953;28;20445;-72
2021/10/04 05:04:38;;;;;;;0.40;0.30;;;;;;;15.48;96.63;101086.34;5053934;28;20496;-71
2021/10/04 05:07:05;;;;;;;0.40;0.30;;;;;;;15.47;97.90;101091.00;5053807;28;20441;-70
2021/10/04 05:09:31;;;;;;;0.40;0.30;;;;;;;15.45;98.31;101101.44;5053683;28;20466;-70
2021/10/04 05:11:57;;;;;;;0.40;0.20;;;;;;;15.43;97.61;101098.22;5053458;28;20442;-70
2021/10/04 05:14:24;;;;;;;0.40;0.30;;;;;;;15.42;97.25;101104.00;5053732;28;20441;-71
2021/10/04 05:16:50;;;;;;;0.40;0.30;;;;;;;15.43;97.17;101089.22;5053585;28;20487;-71
2021/10/04 05:19:17;;;;;;;0.40;0.20;;;;;;;15.47;97.30;101101.13;5053158;28;20514;-70
2021/10/04 05:21:45;;;;;;;0.40;0.30;;;;;;;15.52;97.52;101098.22;5053641;28;20438;-75
2021/10/04 05:24:12;;;;;;;0.40;0.20;;;;;;;15.54;98.05;101094.06;5053523;28;20812;-71
2021/10/04 05:26:38;;;;;;;0.40;0.30;;;;;;;15.55;98.96;101092.13;5053505;28;20535;-71
2021/10/04 05:29:05;;;;;;;0.40;0.30;;;;;;;15.58;98.96;101096.94;5053403;28;20458;-71
2021/10/04 05:31:31;;;;;;;0.40;0.20;;;;;;;15.56;98.85;101101.91;5053404;28;20446;-71
2021/10/04 05:33:58;;;;;;;0.40;0.30;;;;;;;15.53;98.57;101108.81;5053341;28;20469;-71
2021/10/04 05:36:24;;;;;;;0.40;0.20;;;;;;;15.47;97.38;101109.31;5053176;28;20482;-70
2021/10/04 05:38:52;;;;;;;0.40;0.30;;;;;;;15.39;97.17;101108.97;5053171;28;20466;-71
2021/10/04 05:41:20;;;;;;;0.40;0.20;;;;;;;15.37;96.12;101111.22;5053120;28;20472;-71
2021/10/04 05:43:46;;;;;;;0.40;0.20;;;;;;;15.34;95.66;101114.59;5052393;28;20454;-70
2021/10/04 05:46:12;;;;;;;0.40;0.20;;;;;;;15.35;96.79;101123.59;5053201;28;20519;-70
2021/10/04 05:48:39;;;;;;;0.40;0.20;;;;;;;15.40;97.99;101134.34;5053069;28;20466;-70
2021/10/04 05:51:09;;;;;;;0.40;0.20;;;;;;;15.39;99.12;101139.00;5053131;28;20439;-70
2021/10/04 05:53:35;;;;;;;0.40;0.20;;;;;;;15.39;99.96;101141.72;5053449;28;20457;-70
2021/10/04 05:56:04;;;;;;;0.40;0.30;;;;;;;15.43;99.82;101138.38;5052718;28;20485;-70
2021/10/04 05:58:30;;;;;;;0.40;0.20;;;;;;;15.43;100.00;101135.66;5053023;28;20466;-70
2021/10/04 06:00:56;;;;;;;0.50;0.40;;;;;;;15.44;100.00;101127.13;5053053;28;20442;-70
2021/10/04 06:03:23;;;;;;;0.40;0.30;;;;;;;15.46;100.00;101122.16;5053068;28;20442;-70
2021/10/04 06:05:50;;;;;;;0.40;0.23;;;;;;;15.43;100.00;101125.53;5054454;28;20488;-70
2021/10/04 06:08:16;;;;;;;0.40;0.20;;;;;;;15.47;100.00;101139.34;5052964;28;20458;-70
2021/10/04 06:10:43;;;;;;;0.40;0.30;;;;;;;15.50;100.00;101144.16;5052673;28;20449;-72
2021/10/04 06:13:10;;;;;;;0.40;0.20;;;;;;;15.49;100.00;101148.00;5052978;28;20797;-69
2021/10/04 06:15:37;;;;;;;0.40;0.30;;;;;;;15.47;100.00;101142.88;5052607;28;20918;-69
2021/10/04 06:18:04;;;;;;;0.40;0.20;;;;;;;15.42;100.00;101148.50;5052405;28;21028;-69
2021/10/04 06:20:31;;;;;;;0.40;0.27;;;;;;;15.41;99.15;101149.63;5052937;28;20481;-69
2021/10/04 06:22:57;;;;;;;0.40;0.20;;;;;;;15.44;98.44;101156.34;5052835;28;20446;-69
2021/10/04 06:25:23;;;;;;;0.40;0.20;;;;;;;15.44;98.28;101150.91;5052876;28;20438;-70
2021/10/04 06:27:54;;;;;;;0.40;0.23;;;;;;;15.45;98.01;101157.97;5052784;28;20462;-69
2021/10/04 06:30:23;;;;;;;0.40;0.30;;;;;;;15.45;97.40;101163.41;5052912;28;20433;-70
2021/10/04 06:32:50;;;;;;;0.40;0.20;;;;;;;15.46;98.32;101159.59;5052792;28;20449;-69
2021/10/04 06:35:16;;;;;;;0.40;0.30;;;;;;;15.46;97.82;101175.97;5052698;28;20446;-69
2021/10/04 06:37:43;;;;;;;0.40;0.30;;;;;;;15.34;97.47;101169.19;5052675;28;20462;-70
2021/10/04 06:40:10;;;;;;;0.40;0.30;;;;;;;15.36;98.35;101169.69;5052598;28;20443;-70
2021/10/04 06:42:37;;;;;;;0.40;0.23;;;;;;;15.38;98.91;101172.09;5052412;28;20974;-70
2021/10/04 06:45:04;;;;;;;0.40;0.30;;;;;;;15.42;98.95;101183.97;5052589;28;20442;-70
2021/10/04 06:47:32;;;;;;;0.40;0.30;;;;;;;15.42;99.73;101180.47;5052594;28;20465;-70
2021/10/04 06:49:58;;;;;;;0.40;0.20;;;;;;;15.47;99.89;101189.28;5052581;28;20541;-70
2021/10/04 06:52:25;;;;;;;0.40;0.20;;;;;;;15.49;100.00;101191.69;5052606;28;20444;-70
2021/10/04 06:54:51;;;;;;;0.40;0.20;;;;;;;15.46;99.80;101195.06;5055056;28;20495;-70
2021/10/04 06:57:18;;;;;;;0.40;0.20;;;;;;;15.45;99.75;101202.47;5055827;28;20878;-72
2021/10/04 06:59:44;;;;;;;0.40;0.20;;;;;;;15.47;99.93;101210.34;5056160;28;20508;-71
2021/10/04 07:02:11;;;;;;;0.40;0.30;;;;;;;15.50;100.00;101190.59;5056014;28;20449;-70
2021/10/04 07:04:38;;;;;;;0.40;0.30;;;;;;;15.51;100.00;101190.25;5056188;28;20450;-70
2021/10/04 07:07:06;;;;;;;0.40;0.30;;;;;;;15.51;100.00;101189.47;5055806;28;20837;-70
2021/10/04 07:09:32;;;;;;;0.40;0.20;;;;;;;15.54;100.00;101184.16;5056042;28;20465;-70
2021/10/04 07:11:59;;;;;;;0.40;0.20;;;;;;;15.58;100.00;101201.53;5056035;28;20449;-70
2021/10/04 07:14:25;;;;;;;0.40;0.30;;;;;;;15.57;99.66;101210.00;5056026;28;20438;-69
2021/10/04 07:16:52;;;;;;;0.40;0.23;;;;;;;15.60;99.51;101199.25;5055879;28;20485;-70
2021/10/04 07:19:18;;;;;;;0.40;0.30;;;;;;;15.62;99.13;101209.84;5055525;28;20473;-68
2021/10/04 07:21:51;;;;;;;0.40;0.23;;;;;;;15.61;98.12;101211.00;5055883;28;20824;-69
2021/10/04 07:24:18;;;;;;;0.40;0.30;;;;;;;15.62;98.59;101201.66;5055872;28;20770;-69
2021/10/04 07:26:44;;;;;;;0.40;0.30;;;;;;;15.63;99.15;101219.69;5055790;28;20446;-69
2021/10/04 07:29:10;;;;;;;0.40;0.30;;;;;;;15.68;98.54;101237.88;5055663;28;20469;-69
2021/10/04 07:31:37;;;;;;;0.40;0.30;;;;;;;15.71;98.42;101232.56;5055696;28;20803;-69
2021/10/04 07:34:06;;;;;;;0.40;0.30;;;;;;;15.76;99.15;101232.41;5055604;28;20442;-68
2021/10/04 07:36:33;;;;;;;0.40;0.30;;;;;;;15.84;97.58;101245.25;5055516;28;20575;-69
2021/10/04 07:39:01;;;;;;;0.40;0.20;;;;;;;15.86;96.55;101242.22;5055049;28;20835;-69
2021/10/04 07:41:27;;;;;;;0.40;0.30;;;;;;;15.76;96.15;101246.09;5055157;28;20935;-69
2021/10/04 07:43:54;;;;;;;0.40;0.30;;;;;;;15.75;96.35;101239.00;5055368;28;20455;-69
2021/10/04 07:46:20;;;;;;;0.40;0.30;;;;;;;15.81;94.81;101234.19;5055446;28;20454;-68
2021/10/04 07:48:47;;;;;;;0.40;0.30;;;;;;;15.91;95.44;101238.53;5054988;28;20820;-70
2021/10/04 07:51:15;;;;;;;0.40;0.30;;;;;;;15.98;96.20;101247.88;5054883;28;20465;-68
2021/10/04 07:53:42;;;;;;;0.40;0.30;;;;;;;15.88;94.57;101250.88;5055229;28;20503;-69
2021/10/04 07:56:10;;;;;;;0.40;0.20;;;;;;;15.93;93.71;101230.81;5055109;28;20482;-69
2021/10/04 07:58:36;;;;;;;0.40;0.30;;;;;;;16.02;93.76;101237.06;5055080;28;20864;-69
2021/10/04 08:01:03;;;;;;;0.40;0.20;;;;;;;16.15;92.21;101252.50;5055139;28;20447;-69
2021/10/04 08:03:29;;;;;;;0.40;0.30;;;;;;;16.23;89.86;101254.44;5055098;28;20437;-69
2021/10/04 08:05:56;;;;;;;0.40;0.30;;;;;;;16.15;89.17;101247.84;5054413;28;20445;-69
2021/10/04 08:08:22;;;;;;;0.40;0.20;;;;;;;16.17;88.92;101263.94;5054942;28;20462;-69
2021/10/04 08:10:49;;;;;;;0.40;0.30;;;;;;;16.25;89.18;101263.13;5054914;28;20454;-69
2021/10/04 08:13:17;;;;;;;0.40;0.30;;;;;;;16.37;87.95;101271.47;5054877;28;20465;-69
2021/10/04 08:15:43;;;;;;;0.40;0.30;;;;;;;16.42;85.52;101272.44;5054712;28;20442;-69
2021/10/04 08:18:10;;;;;;;0.40;0.20;;;;;;;16.41;86.12;101274.38;5054420;28;20581;-69
2021/10/04 08:20:37;;;;;;;0.40;0.30;;;;;;;16.02;84.84;101269.88;5054751;28;20426;-69
2021/10/04 08:23:03;;;;;;;0.40;0.30;;;;;;;16.10;84.42;101271.81;5054652;28;20855;-69
2021/10/04 08:25:30;;;;;;;0.40;0.20;;;;;;;16.20;85.10;101282.41;5054648;28;20446;-69
2021/10/04 08:27:57;;;;;;;0.40;0.30;;;;;;;16.26;86.46;101281.13;5054469;28;20493;-69
2021/10/04 08:30:25;;;;;;;0.40;0.30;;;;;;;16.29;87.06;101285.97;5054580;28;20450;-69
2021/10/04 08:32:51;;;;;;;0.40;0.30;;;;;;;16.29;88.19;101285.97;5054217;28;20939;-69
2021/10/04 08:35:17;;;;;;;0.40;0.30;;;;;;;16.27;87.22;101285.47;5054475;28;20439;-69
2021/10/04 08:37:44;;;;;;;0.40;0.30;;;;;;;16.27;87.01;101285.47;5054128;28;20481;-69
2021/10/04 08:40:15;;;;;;;0.40;0.20;;;;;;;16.28;86.99;101298.00;5054058;28;20962;-69
2021/10/04 08:42:41;;;;;;;0.40;0.30;;;;;;;16.30;88.99;101303.19;5054041;28;20913;-69
2021/10/04 08:45:09;;;;;;;0.40;0.20;;;;;;;16.31;89.22;101316.50;5053952;28;20445;-69
2021/10/04 08:47:39;;;;;;;0.40;0.30;;;;;;;16.30;88.51;101325.84;5054144;28;20450;-69
2021/10/04 08:50:07;;;;;;;0.40;0.20;;;;;;;16.18;86.63;101328.41;5054428;28;20495;-69
2021/10/04 08:52:33;;;;;;;0.40;0.30;;;;;;;16.21;86.69;101319.56;5054130;28;20442;-69
2021/10/04 08:55:00;;;;;;;0.40;0.20;;;;;;;16.30;87.90;101325.03;5053785;28;20438;-69
2021/10/04 08:57:26;;;;;;;0.40;0.27;;;;;;;16.37;88.10;101319.88;5053608;28;20490;-69
2021/10/04 08:59:53;;;;;;;0.40;0.23;;;;;;;16.32;90.38;101318.13;5053932;28;20449;-69
2021/10/04 09:02:23;;;;;;;0.40;0.23;;;;;;;16.34;90.09;101313.16;5053979;28;20450;-69
2021/10/04 09:05:07;;;;;;;0.40;0.30;;;;;;;16.33;88.21;101319.72;5053932;28;20423;-69
2021/10/04 09:07:41;;;;;;;0.40;0.30;;;;;;;16.28;85.40;101316.34;5053788;28;20430;-69
2021/10/04 09:10:09;;;;;;;0.40;0.20;;;;;;;16.25;84.05;101309.59;5053773;28;20479;-69
2021/10/04 09:12:45;;;;;;;0.40;0.20;;;;;;;16.27;84.72;101321.00;5053820;28;20867;-69
2021/10/04 09:15:23;;;;;;;0.40;0.20;;;;;;;16.28;86.27;101321.81;5053665;28;20434;-70
2021/10/04 09:17:50;;;;;;;0.40;0.20;;;;;;;16.29;87.01;101329.72;5052476;28;20489;-69
2021/10/04 09:20:18;;;;;;;0.40;0.23;;;;;;;16.28;87.88;101339.00;5053695;28;20465;-69
2021/10/04 09:22:44;;;;;;;0.40;0.30;;;;;;;16.18;86.35;101330.34;5053254;28;20450;-69
2021/10/04 09:25:12;;;;;;;0.40;0.30;;;;;;;16.20;84.43;101322.59;5053504;28;20808;-69
2021/10/04 09:27:40;;;;;;;0.40;0.30;;;;;;;16.24;84.99;101334.50;5053387;28;20434;-69
2021/10/04 09:30:11;;;;;;;0.40;0.20;;;;;;;16.22;85.61;101334.03;5053460;28;20449;-69
2021/10/04 09:32:41;;;;;;;0.40;0.30;;;;;;;16.18;84.10;101336.59;5053454;28;20427;-69
2021/10/04 09:35:14;;;;;;;0.40;0.30;;;;;;;16.18;84.73;101333.06;5053432;28;20434;-69
2021/10/04 09:37:42;;;;;;;0.40;0.20;;;;;;;16.16;85.03;101347.06;5052877;28;20474;-69
2021/10/04 09:40:25;;;;;;;0.40;0.30;;;;;;;16.14;85.12;101349.31;5053039;28;20442;-69
2021/10/04 09:42:51;;;;;;;0.40;0.23;;;;;;;16.13;84.81;101353.16;5053297;28;20465;-69
2021/10/04 09:45:18;;;;;;;0.40;0.23;;;;;;;16.15;85.12;101351.72;5053295;28;20453;-69
2021/10/04 09:47:45;;;;;;;0.40;0.23;;;;;;;16.11;85.56;101355.41;5053147;28;20470;-69
2021/10/04 09:50:13;;;;;;;0.40;0.30;;;;;;;16.07;86.49;101359.88;5053194;28;20457;-70
2021/10/04 09:52:46;;;;;;;0.40;0.20;;;;;;;16.07;86.33;101362.63;5053183;28;20446;-69
2021/10/04 09:55:19;;;;;;;0.40;0.20;;;;;;;15.91;86.24;101364.22;5053216;28;20426;-69
2021/10/04 09:57:59;;;;;;;0.40;0.20;;;;;;;15.85;85.45;101358.09;5053026;28;20485;-70
2021/10/04 10:00:27;;;;;;;0.40;0.27;;;;;;;15.89;87.16;101353.59;5053222;28;20514;-72
2021/10/04 10:02:57;;;;;;;0.40;0.30;;;;;;;15.95;88.62;101348.81;5053071;28;20435;-70
2021/10/04 10:05:24;;;;;;;0.40;0.30;;;;;;;15.90;87.51;101352.50;5053092;28;20441;-70
2021/10/04 10:07:52;;;;;;;0.40;0.30;;;;;;;15.91;87.04;101342.34;5052968;28;20458;-70
2021/10/04 10:10:20;;;;;;;0.40;0.30;;;;;;;15.91;86.63;101347.81;5053035;28;20449;-70
2021/10/04 10:12:47;;;;;;;0.40;0.30;;;;;;;15.97;86.96;101343.81;5053023;28;20427;-70
2021/10/04 10:15:19;;;;;;;0.40;0.20;;;;;;;15.94;87.16;101341.69;5052676;28;20442;-69
2021/10/04 10:17:47;;;;;;;0.40;0.30;;;;;;;15.99;86.79;101342.38;5052336;28;21003;-70
2021/10/04 10:20:17;;;;;;;0.40;0.30;;;;;;;16.11;86.53;101347.19;5052967;28;20426;-70
2021/10/04 10:22:48;;;;;;;0.40;0.30;;;;;;;16.13;85.05;101347.69;5052922;28;20433;-70
2021/10/04 10:25:35;;;;;;;0.40;0.30;;;;;;;16.15;87.67;101334.50;5052894;28;20466;-70
2021/10/04 10:28:03;;;;;;;0.40;0.30;;;;;;;16.25;88.35;101345.16;5052880;28;20461;-70
2021/10/04 10:30:30;;;;;;;0.40;0.20;;;;;;;16.24;88.32;101351.72;5056594;28;20488;-70
2021/10/04 10:32:58;;;;;;;0.40;0.20;;;;;;;16.28;86.74;101349.94;5056544;28;20935;-70
2021/10/04 10:35:48;;;;;;;0.40;0.30;;;;;;;16.30;86.59;101353.19;5056785;28;20433;-70
2021/10/04 10:38:16;;;;;;;0.40;0.20;;;;;;;16.26;83.68;101352.22;5056528;28;20494;-70
2021/10/04 10:41:16;;;;;;;0.40;0.30;;;;;;;16.24;84.80;101359.91;5056665;28;20442;-70
2021/10/04 10:44:12;;;;;;;0.40;0.30;;;;;;;16.21;85.69;101360.59;5056652;28;20446;-69
2021/10/04 10:46:56;;;;;;;0.40;0.30;;;;;;;16.17;84.25;101359.59;5056539;28;20438;-70
2021/10/04 10:50:00;;;;;;;0.40;0.30;;;;;;;16.15;84.30;101367.31;5056219;28;20837;-70
2021/10/04 10:52:28;;;;;;;0.40;0.30;;;;;;;16.11;84.52;101369.06;5056518;28;20843;-70
2021/10/04 10:54:56;;;;;;;0.40;0.30;;;;;;;16.07;84.60;101371.66;5056141;28;20808;-69
2021/10/04 10:57:45;;;;;;;0.40;0.23;;;;;;;15.99;85.50;101356.03;5056286;28;20486;-70
2021/10/04 11:00:16;;;;;;;0.40;0.27;;;;;;;16.04;86.24;101344.16;5055962;28;20544;-70
2021/10/04 11:02:54;;;;;;;0.40;0.30;;;;;;;16.10;87.71;101348.31;5056278;28;20442;-69
2021/10/04 11:05:50;;;;;;;0.40;0.23;;;;;;;16.16;86.62;101347.06;5055984;28;20426;-70
2021/10/04 11:08:18;;;;;;;0.40;0.30;;;;;;;16.18;85.36;101360.41;5056060;28;20485;-69
2021/10/04 11:11:11;;;;;;;0.40;0.30;;;;;;;16.13;82.87;101372.31;5056167;28;20442;-70
2021/10/04 11:13:40;;;;;;;0.40;0.30;;;;;;;16.11;83.53;101378.09;5056160;28;20426;-70
2021/10/04 11:16:35;;;;;;;0.40;0.30;;;;;;;16.05;85.33;101373.88;5055907;28;20453;-70
2021/10/04 11:19:04;;;;;;;0.40;0.30;;;;;;;16.08;87.35;101377.94;5009610;28;20508;-70
2021/10/04 11:21:31;;;;;;;0.40;0.30;;;;;;;16.12;85.73;101387.09;5055938;28;20442;-69
2021/10/04 11:24:01;;;;;;;0.40;0.30;;;;;;;16.07;85.38;101371.66;5055888;28;20450;-69
2021/10/04 11:26:28;;;;;;;0.40;0.20;;;;;;;16.12;85.20;101367.97;5056203;28;20517;-69
2021/10/04 11:28:58;;;;;;;0.40;0.30;;;;;;;16.10;85.93;101376.47;5055865;28;20465;-69